Time;durP1;ratioP1;P1;durP2;ratioP2;P2;SDS_P1;SDS_P2;PMS_P1;PMS_P2;Temp;Humidity;BMP_temperature;BMP_pressure;BME280_temperature;BME280_humidity;BME280_pressure;Samples;Min_cycle;Max_cycle;Signal;HPM_P1;HPM_P2
2022/01/07 00:01:35;;;;;;;9.40;3.55;;;5.40;99.90;;;;;;5035153;28;20178;-81
2022/01/07 00:04:02;;;;;;;10.40;3.38;;;5.40;99.90;;;;;;5034802;28;20211;-80
2022/01/07 00:06:29;;;;;;;5.90;3.15;;;5.40;99.90;;;;;;5049693;28;20205;-80
2022/01/07 00:08:55;;;;;;;8.87;3.23;;;5.40;99.90;;;;;;5048822;28;20615;-81
2022/01/07 00:11:20;;;;;;;6.63;3.20;;;5.40;99.90;;;;;;5038871;28;20169;-80
2022/01/07 00:13:47;;;;;;;6.15;4.25;;;5.40;99.90;;;;;;5049248;28;20660;-81
2022/01/07 00:16:13;;;;;;;8.47;3.60;;;5.40;99.90;;;;;;5031809;28;20177;-81
2022/01/07 00:18:41;;;;;;;6.23;3.00;;;5.40;99.90;;;;;;5051865;28;20675;-81
2022/01/07 00:21:07;;;;;;;7.57;2.75;;;5.40;99.90;;;;;;5054145;28;20576;-81
2022/01/07 00:23:33;;;;;;;10.95;4.50;;;5.40;99.90;;;;;;5039239;28;20228;-81
2022/01/07 00:25:59;;;;;;;6.20;3.20;;;5.40;99.90;;;;;;5055317;28;20174;-83
2022/01/07 00:28:27;;;;;;;7.90;2.87;;;5.50;99.90;;;;;;5039236;28;20592;-81
2022/01/07 00:30:53;;;;;;;6.68;3.58;;;5.50;99.90;;;;;;5022795;28;20608;-81
2022/01/07 00:33:19;;;;;;;11.97;4.40;;;5.50;99.90;;;;;;5059064;28;20177;-81
2022/01/07 00:35:45;;;;;;;7.73;3.47;;;5.50;99.90;;;;;;5043663;28;20596;-81
2022/01/07 00:38:10;;;;;;;8.17;2.70;;;5.50;99.90;;;;;;5040670;28;20173;-81
2022/01/07 00:40:36;;;;;;;6.67;2.60;;;5.50;99.90;;;;;;5041058;28;20616;-82
2022/01/07 00:43:03;;;;;;;9.03;2.70;;;5.50;99.90;;;;;;5059012;28;21134;-82
2022/01/07 00:45:29;;;;;;;6.63;3.03;;;5.50;99.90;;;;;;5045904;28;20628;-82
2022/01/07 00:47:56;;;;;;;7.70;3.88;;;5.50;99.90;;;;;;5047649;28;20221;-80
2022/01/07 00:50:25;;;;;;;4.93;2.70;;;5.50;99.90;;;;;;5036608;28;20189;-81
2022/01/07 00:52:51;;;;;;;8.82;3.83;;;5.50;99.90;;;;;;5036397;28;20201;-81
2022/01/07 00:55:18;;;;;;;6.60;3.38;;;5.50;99.90;;;;;;5035991;28;20259;-80
2022/01/07 00:57:44;;;;;;;11.15;3.67;;;5.50;99.90;;;;;;5051547;28;20178;-80
2022/01/07 01:00:13;;;;;;;9.00;3.67;;;5.50;99.90;;;;;;5034467;28;20198;-80
2022/01/07 01:02:40;;;;;;;8.95;3.75;;;5.50;99.90;;;;;;5035166;28;20188;-80
2022/01/07 01:05:07;;;;;;;9.98;3.65;;;5.50;99.90;;;;;;5050673;28;20178;-80
2022/01/07 01:07:33;;;;;;;7.45;3.05;;;5.50;99.90;;;;;;5050716;28;20205;-80
2022/01/07 01:09:59;;;;;;;6.77;3.20;;;5.60;99.90;;;;;;5034124;28;20207;-79
2022/01/07 01:12:25;;;;;;;5.88;2.60;;;5.50;99.90;;;;;;5050124;28;20168;-80
2022/01/07 01:14:51;;;;;;;6.10;3.00;;;5.60;99.90;;;;;;5051384;28;20165;-79
2022/01/07 01:17:17;;;;;;;11.83;4.33;;;5.60;99.90;;;;;;5037914;28;20642;-79
2022/01/07 01:19:43;;;;;;;8.55;4.40;;;5.60;99.90;;;;;;5037796;28;20278;-80
2022/01/07 01:22:09;;;;;;;7.87;4.10;;;5.50;99.90;;;;;;5037168;28;20189;-79
2022/01/07 01:24:35;;;;;;;9.27;4.38;;;5.50;99.90;;;;;;5036370;28;20188;-79
2022/01/07 01:27:01;;;;;;;10.85;5.20;;;5.50;99.90;;;;;;5034815;28;20572;-79
2022/01/07 01:29:27;;;;;;;5.65;3.05;;;5.50;99.90;;;;;;5034822;28;20236;-79
2022/01/07 01:31:53;;;;;;;5.57;3.90;;;5.50;99.90;;;;;;5034238;28;20178;-79
2022/01/07 01:34:18;;;;;;;8.03;4.53;;;5.50;99.90;;;;;;5034149;28;20589;-79
2022/01/07 01:36:45;;;;;;;6.77;4.13;;;5.50;99.90;;;;;;5034180;28;20569;-79
2022/01/07 01:39:12;;;;;;;7.43;4.80;;;5.50;99.90;;;;;;5034051;28;20653;-79
2022/01/07 01:41:39;;;;;;;8.23;4.30;;;5.50;99.90;;;;;;5033787;28;20173;-79
2022/01/07 01:44:05;;;;;;;6.50;4.05;;;5.50;99.90;;;;;;5031810;28;20226;-79
2022/01/07 01:46:31;;;;;;;9.40;4.90;;;5.50;99.90;;;;;;5033885;28;20288;-78
2022/01/07 01:48:57;;;;;;;9.03;4.20;;;5.50;99.90;;;;;;5033873;28;20943;-79
2022/01/07 01:51:23;;;;;;;7.00;4.10;;;5.50;99.90;;;;;;5048727;28;20173;-79
2022/01/07 01:53:49;;;;;;;8.85;5.50;;;5.50;99.90;;;;;;5033974;28;20177;-79
2022/01/07 01:56:14;;;;;;;10.67;4.40;;;5.50;99.90;;;;;;5032605;28;20177;-78
2022/01/07 01:58:40;;;;;;;5.67;3.90;;;5.50;99.90;;;;;;5032273;28;20608;-78
2022/01/07 02:01:06;;;;;;;8.87;4.63;;;5.50;99.90;;;;;;5036371;28;20174;-81
2022/01/07 02:03:32;;;;;;;7.60;3.53;;;5.50;99.90;;;;;;5038853;28;20174;-81
2022/01/07 02:05:58;;;;;;;7.53;3.90;;;5.60;99.90;;;;;;5038428;28;20174;-81
2022/01/07 02:08:24;;;;;;;5.93;3.00;;;5.60;99.90;;;;;;5042643;28;20561;-81
2022/01/07 02:10:50;;;;;;;3.33;2.55;;;5.60;99.90;;;;;;5039930;28;20611;-83
2022/01/07 02:13:17;;;;;;;8.80;4.07;;;5.70;99.90;;;;;;5039824;28;20252;-82
2022/01/07 02:15:42;;;;;;;5.63;3.40;;;5.70;99.90;;;;;;5039877;28;20252;-82
2022/01/07 02:18:08;;;;;;;6.47;3.13;;;5.70;99.90;;;;;;5055781;28;20243;-82
2022/01/07 02:20:34;;;;;;;4.93;3.07;;;5.70;99.90;;;;;;5039072;28;20611;-82
2022/01/07 02:23:00;;;;;;;10.37;3.00;;;5.70;99.90;;;;;;5045532;28;20921;-82
2022/01/07 02:25:27;;;;;;;5.50;3.10;;;5.70;99.90;;;;;;5048094;28;20572;-82
2022/01/07 02:27:54;;;;;;;9.50;3.80;;;5.80;99.90;;;;;;5065241;28;20927;-82
2022/01/07 02:30:25;;;;;;;5.65;2.60;;;5.80;99.90;;;;;;5049425;28;20274;-82
2022/01/07 02:32:51;;;;;;;4.68;2.65;;;5.90;99.90;;;;;;5064470;28;20204;-82
2022/01/07 02:35:19;;;;;;;3.45;3.10;;;5.90;99.90;;;;;;5040266;28;20261;-83
2022/01/07 02:37:45;;;;;;;7.00;3.35;;;5.90;99.90;;;;;;5047362;28;20178;-83
2022/01/07 02:40:12;;;;;;;3.70;2.17;;;6.00;99.90;;;;;;5055263;28;20209;-83
2022/01/07 02:42:38;;;;;;;5.75;2.80;;;6.00;99.90;;;;;;5039241;28;20672;-82
2022/01/07 02:45:08;;;;;;;4.07;2.22;;;6.10;99.90;;;;;;5041711;28;20264;-83
2022/01/07 02:47:53;;;;;;;5.63;2.42;;;6.10;99.90;;;;;;5038213;28;20336;-83
2022/01/07 02:50:25;;;;;;;5.85;2.40;;;6.20;99.90;;;;;;5048949;28;20242;-83
2022/01/07 02:52:51;;;;;;;3.78;2.05;;;6.10;99.90;;;;;;5034742;28;20180;-83
2022/01/07 02:55:19;;;;;;;3.22;2.20;;;6.10;99.90;;;;;;5033296;28;20166;-83
2022/01/07 02:57:45;;;;;;;6.38;2.38;;;6.00;99.90;;;;;;5034276;28;20634;-84
2022/01/07 03:00:14;;;;;;;2.80;2.03;;;6.00;99.90;;;;;;5049458;28;20276;-84
2022/01/07 03:02:40;;;;;;;4.65;2.45;;;6.00;99.90;;;;;;5034777;28;20954;-83
2022/01/07 03:05:07;;;;;;;5.53;2.30;;;5.90;99.90;;;;;;5036843;28;20552;-84
2022/01/07 03:07:33;;;;;;;4.35;2.72;;;5.80;99.90;;;;;;5053708;28;20193;-84
2022/01/07 03:09:59;;;;;;;3.88;2.38;;;5.70;99.90;;;;;;5040857;28;20237;-84
2022/01/07 03:12:25;;;;;;;5.43;2.47;;;5.60;99.90;;;;;;5056774;28;20648;-85
2022/01/07 03:14:51;;;;;;;4.77;2.30;;;5.60;99.90;;;;;;5046720;28;20166;-84
2022/01/07 03:17:17;;;;;;;4.90;2.17;;;5.50;99.90;;;;;;5045824;28;20588;-84
2022/01/07 03:19:43;;;;;;;2.55;1.90;;;5.40;99.90;;;;;;5050236;28;20407;-84
2022/01/07 03:22:09;;;;;;;8.90;2.80;;;5.30;99.90;;;;;;5051711;28;20177;-84
2022/01/07 03:24:34;;;;;;;2.70;1.50;;;5.20;99.90;;;;;;5047033;28;20665;-84
2022/01/07 03:27:00;;;;;;;7.07;2.37;;;5.20;99.90;;;;;;5062566;28;20570;-84
2022/01/07 03:29:26;;;;;;;3.13;2.13;;;5.10;99.90;;;;;;5047728;28;20557;-83
2022/01/07 03:31:51;;;;;;;4.90;2.90;;;5.10;99.90;;;;;;5044480;28;20201;-83
2022/01/07 03:34:17;;;;;;;4.03;2.07;;;5.00;99.90;;;;;;5057214;28;20276;-83
2022/01/07 03:36:43;;;;;;;4.87;1.90;;;4.90;99.90;;;;;;5047273;28;20174;-83
2022/01/07 03:39:08;;;;;;;3.00;2.17;;;4.80;99.90;;;;;;5043504;28;20193;-82
2022/01/07 03:41:34;;;;;;;5.50;3.23;;;4.80;99.90;;;;;;5036934;28;20320;-82
2022/01/07 03:44:01;;;;;;;4.28;2.58;;;4.80;99.90;;;;;;5036394;28;20174;-82
2022/01/07 03:46:26;;;;;;;6.13;3.00;;;4.70;99.90;;;;;;5036292;28;20599;-82
2022/01/07 03:48:52;;;;;;;6.67;2.07;;;4.70;99.90;;;;;;5061259;28;20207;-82
2022/01/07 03:51:18;;;;;;;3.70;2.50;;;4.70;99.90;;;;;;5066650;28;20165;-82
2022/01/07 03:53:44;;;;;;;3.87;2.30;;;4.70;99.90;;;;;;5047717;28;20170;-83
2022/01/07 03:56:11;;;;;;;6.03;3.30;;;4.70;99.90;;;;;;5046505;28;20228;-83
2022/01/07 03:58:37;;;;;;;4.63;2.58;;;4.70;99.90;;;;;;5045304;28;20579;-83
2022/01/07 04:01:03;;;;;;;6.05;2.72;;;4.70;99.90;;;;;;5043298;28;20172;-83
2022/01/07 04:03:29;;;;;;;3.60;2.33;;;4.70;99.90;;;;;;5036864;28;20193;-82
2022/01/07 04:05:55;;;;;;;5.65;3.10;;;4.70;99.90;;;;;;5036376;28;20572;-82
2022/01/07 04:08:21;;;;;;;6.33;2.50;;;4.70;99.90;;;;;;5056945;28;20883;-82
2022/01/07 04:10:46;;;;;;;8.17;2.73;;;4.70;99.90;;;;;;5042297;28;20205;-82
2022/01/07 04:13:13;;;;;;;5.73;3.23;;;4.70;99.90;;;;;;5042241;28;20568;-82
2022/01/07 04:15:41;;;;;;;3.40;2.15;;;4.70;99.90;;;;;;5044036;28;20237;-82
2022/01/07 04:18:07;;;;;;;5.57;2.53;;;4.70;99.90;;;;;;5040510;28;20179;-82
2022/01/07 04:20:34;;;;;;;5.00;2.47;;;4.80;99.90;;;;;;5061218;22;20210;-77
2022/01/07 04:23:00;;;;;;;7.00;2.53;;;4.80;99.90;;;;;;5026468;28;20219;-77
2022/01/07 04:25:27;;;;;;;4.38;2.35;;;4.80;99.90;;;;;;5037305;28;20192;-77
2022/01/07 04:27:59;;;;;;;5.45;2.60;;;4.80;99.90;;;;;;5021668;28;20311;-77
2022/01/07 04:30:32;;;;;;;7.75;3.35;;;4.80;99.90;;;;;;5038172;28;20268;-77
2022/01/07 04:32:59;;;;;;;5.32;2.92;;;4.90;99.90;;;;;;5036944;28;20173;-77
2022/01/07 04:35:25;;;;;;;7.90;2.78;;;4.90;99.90;;;;;;5035348;28;20177;-77
2022/01/07 04:37:51;;;;;;;5.25;2.17;;;4.90;99.90;;;;;;5017735;28;20177;-77
2022/01/07 04:40:18;;;;;;;5.53;2.65;;;5.00;99.90;;;;;;5033494;28;20196;-77
2022/01/07 04:42:44;;;;;;;4.78;2.45;;;5.00;99.90;;;;;;5034186;28;20545;-77
2022/01/07 04:45:11;;;;;;;4.80;2.97;;;5.00;99.90;;;;;;5033829;28;20177;-77
2022/01/07 04:47:38;;;;;;;6.05;2.53;;;5.10;99.90;;;;;;5035294;28;20200;-77
2022/01/07 04:50:10;;;;;;;11.23;3.75;;;5.10;99.90;;;;;;5034808;28;20201;-77
2022/01/07 04:52:38;;;;;;;5.22;2.72;;;5.00;99.90;;;;;;5034015;28;20532;-77
2022/01/07 04:55:05;;;;;;;4.10;2.40;;;5.10;99.90;;;;;;5035226;28;20170;-77
2022/01/07 04:57:31;;;;;;;3.50;1.95;;;5.10;99.90;;;;;;5035257;28;20595;-77
2022/01/07 04:59:56;;;;;;;3.80;2.20;;;5.10;99.90;;;;;;5035138;28;20260;-77
2022/01/07 05:02:22;;;;;;;6.83;3.30;;;5.20;99.90;;;;;;5036292;28;20630;-77
2022/01/07 05:04:48;;;;;;;4.57;1.60;;;5.20;99.90;;;;;;5039845;28;20717;-78
2022/01/07 05:07:16;;;;;;;5.07;2.33;;;5.20;99.90;;;;;;5034052;28;20206;-78
2022/01/07 05:09:42;;;;;;;4.00;2.55;;;5.20;99.90;;;;;;5033252;28;20162;-78
2022/01/07 05:12:08;;;;;;;3.10;2.03;;;5.30;99.90;;;;;;5035154;28;20502;-77
2022/01/07 05:14:34;;;;;;;7.28;2.83;;;5.30;99.90;;;;;;5034738;28;20178;-78
2022/01/07 05:17:00;;;;;;;4.03;2.03;;;5.30;99.90;;;;;;5034968;28;20178;-78
2022/01/07 05:19:26;;;;;;;5.25;2.17;;;5.40;99.90;;;;;;5033618;28;20684;-77
2022/01/07 05:21:52;;;;;;;4.40;2.40;;;5.40;99.90;;;;;;5034363;28;20197;-76
2022/01/07 05:24:18;;;;;;;3.93;2.07;;;5.50;99.90;;;;;;5033855;28;20243;-78
2022/01/07 05:26:43;;;;;;;6.93;2.20;;;5.50;99.90;;;;;;5033422;28;20209;-77
2022/01/07 05:29:09;;;;;;;8.63;2.63;;;5.60;99.90;;;;;;5017132;28;20177;-77
2022/01/07 05:31:35;;;;;;;3.43;2.00;;;5.60;99.90;;;;;;5031952;28;20669;-77
2022/01/07 05:34:01;;;;;;;3.70;2.07;;;5.60;99.90;;;;;;5032174;28;20194;-78
2022/01/07 05:36:26;;;;;;;6.57;2.27;;;5.70;99.90;;;;;;5034743;28;20166;-77
2022/01/07 05:38:52;;;;;;;2.33;1.73;;;5.70;99.90;;;;;;5033402;28;20506;-77
2022/01/07 05:41:18;;;;;;;3.43;1.53;;;5.80;99.90;;;;;;5038353;28;20228;-76
2022/01/07 05:43:44;;;;;;;4.88;2.17;;;5.80;99.90;;;;;;5037999;28;20256;-76
2022/01/07 05:46:14;;;;;;;3.83;1.97;;;5.80;99.90;;;;;;5037032;28;20220;-77
2022/01/07 05:48:44;;;;;;;3.25;1.60;;;5.80;99.90;;;;;;5036815;28;20173;-77
2022/01/07 05:51:10;;;;;;;3.22;1.50;;;5.90;99.90;;;;;;5036794;28;20182;-78
2022/01/07 05:53:36;;;;;;;3.67;1.65;;;5.90;99.90;;;;;;5036424;28;20166;-77
2022/01/07 05:56:02;;;;;;;2.53;1.50;;;6.00;99.90;;;;;;5037678;28;20166;-77
2022/01/07 05:58:28;;;;;;;3.75;1.40;;;6.00;99.90;;;;;;5034854;28;20587;-77
2022/01/07 06:00:54;;;;;;;2.97;1.50;;;6.00;99.90;;;;;;5035149;28;20193;-77
2022/01/07 06:03:19;;;;;;;4.03;1.60;;;6.00;99.90;;;;;;5032621;28;20170;-78
2022/01/07 06:05:45;;;;;;;4.20;1.30;;;6.10;99.90;;;;;;5032590;28;20174;-77
2022/01/07 06:08:11;;;;;;;4.07;1.30;;;6.00;99.90;;;;;;5015770;28;20627;-78
2022/01/07 06:10:37;;;;;;;2.20;1.10;;;6.10;99.90;;;;;;5033179;28;20250;-77
2022/01/07 06:13:02;;;;;;;3.57;1.33;;;6.00;99.90;;;;;;5032340;28;20173;-78
2022/01/07 06:15:28;;;;;;;6.57;1.47;;;6.10;99.90;;;;;;5032559;28;20169;-78
2022/01/07 06:17:54;;;;;;;2.83;1.13;;;6.10;99.90;;;;;;5037666;28;20184;-78
2022/01/07 06:20:21;;;;;;;2.77;1.50;;;6.10;99.90;;;;;;5034258;28;20280;-78
2022/01/07 06:22:47;;;;;;;3.47;1.60;;;6.20;99.90;;;;;;5032091;28;20176;-78
2022/01/07 06:25:13;;;;;;;1.73;1.13;;;6.20;99.90;;;;;;5033140;28;20227;-78
2022/01/07 06:27:39;;;;;;;5.40;2.00;;;6.20;99.90;;;;;;5033072;28;20221;-78
2022/01/07 06:30:07;;;;;;;3.40;1.42;;;6.20;99.90;;;;;;5032081;28;20225;-78
2022/01/07 06:32:33;;;;;;;3.50;1.70;;;6.20;99.90;;;;;;5031754;28;20177;-78
2022/01/07 06:34:59;;;;;;;7.18;1.63;;;6.20;99.90;;;;;;5031914;28;20158;-79
2022/01/07 06:37:25;;;;;;;3.40;1.60;;;6.20;99.90;;;;;;5033087;28;20170;-76
2022/01/07 06:39:51;;;;;;;2.90;1.40;;;6.20;99.90;;;;;;5031112;28;20182;-76
2022/01/07 06:42:17;;;;;;;10.10;1.80;;;6.20;99.90;;;;;;5032740;28;20168;-76
2022/01/07 06:44:44;;;;;;;2.40;1.30;;;6.20;99.90;;;;;;4998711;28;20178;-77
2022/01/07 06:47:09;;;;;;;5.07;1.45;;;6.20;99.90;;;;;;5031540;28;20247;-77
2022/01/07 06:49:36;;;;;;;3.67;1.77;;;6.20;99.90;;;;;;5032460;28;20554;-77
2022/01/07 06:52:02;;;;;;;3.78;1.48;;;6.10;99.90;;;;;;5031595;28;20971;-79
2022/01/07 06:54:28;;;;;;;3.40;1.97;;;6.10;99.90;;;;;;5016197;28;20213;-78
2022/01/07 06:56:54;;;;;;;2.13;0.90;;;6.10;99.90;;;;;;5036629;28;21158;-77
2022/01/07 06:59:20;;;;;;;2.85;1.40;;;6.10;99.90;;;;;;5032411;28;20184;-77
2022/01/07 07:01:47;;;;;;;3.00;1.27;;;6.10;99.90;;;;;;5030979;28;20193;-78
2022/01/07 07:04:14;;;;;;;2.53;1.05;;;6.10;99.90;;;;;;5032512;28;20976;-78
2022/01/07 07:06:40;;;;;;;1.55;0.93;;;6.10;99.90;;;;;;5032451;28;20296;-78
2022/01/07 07:09:07;;;;;;;2.17;0.95;;;6.10;99.90;;;;;;5032309;28;20717;-78
2022/01/07 07:11:33;;;;;;;2.15;1.08;;;6.10;99.90;;;;;;5014686;28;20545;-78
2022/01/07 07:13:59;;;;;;;2.73;1.03;;;6.20;99.90;;;;;;5014644;28;20162;-77
2022/01/07 07:16:25;;;;;;;3.03;1.03;;;6.20;99.90;;;;;;5032685;28;20611;-78
2022/01/07 07:18:51;;;;;;;1.88;1.08;;;6.20;99.90;;;;;;5031100;28;20178;-77
2022/01/07 07:21:17;;;;;;;3.97;1.47;;;6.20;99.90;;;;;;5032180;28;20301;-79
2022/01/07 07:23:43;;;;;;;1.67;0.93;;;6.20;99.90;;;;;;5032056;28;20170;-78
2022/01/07 07:26:09;;;;;;;3.70;1.80;;;6.20;99.90;;;;;;5002671;28;20709;-78
2022/01/07 07:28:36;;;;;;;4.53;1.70;;;6.20;99.90;;;;;;4998924;28;20576;-78
2022/01/07 07:31:11;;;;;;;2.35;1.25;;;6.20;99.90;;;;;;4985237;28;20740;-78
2022/01/07 07:33:56;;;;;;;2.17;1.27;;;6.30;99.90;;;;;;5001918;28;20175;-78
2022/01/07 07:36:44;;;;;;;3.17;1.38;;;6.30;99.90;;;;;;5003191;28;20182;-78
2022/01/07 07:39:12;;;;;;;2.00;1.05;;;6.30;99.90;;;;;;5003176;28;20221;-79
2022/01/07 07:41:41;;;;;;;2.53;1.33;;;6.40;99.90;;;;;;5008785;28;20249;-79
2022/01/07 07:44:08;;;;;;;3.08;1.00;;;6.40;99.90;;;;;;5012273;28;20170;-78
2022/01/07 07:46:36;;;;;;;2.05;1.20;;;6.40;99.90;;;;;;5011781;28;20194;-79
2022/01/07 07:49:03;;;;;;;2.50;1.10;;;6.40;99.90;;;;;;5004477;28;20707;-79
2022/01/07 07:51:29;;;;;;;1.75;1.05;;;6.40;99.90;;;;;;4991812;28;20553;-79
2022/01/07 07:53:56;;;;;;;2.30;1.43;;;6.40;99.90;;;;;;4992308;28;20167;-79
2022/01/07 07:56:22;;;;;;;1.73;0.90;;;6.50;99.90;;;;;;4992151;28;20169;-78
2022/01/07 07:58:48;;;;;;;2.72;1.10;;;6.50;99.90;;;;;;4992298;28;20524;-79
2022/01/07 08:01:14;;;;;;;1.70;0.90;;;6.50;99.90;;;;;;4990530;28;20183;-77
2022/01/07 08:03:41;;;;;;;4.93;1.35;;;6.50;99.90;;;;;;4992488;28;20202;-77
2022/01/07 08:06:07;;;;;;;1.92;1.08;;;6.50;99.90;;;;;;4992720;28;20531;-77
2022/01/07 08:08:33;;;;;;;2.42;0.90;;;6.60;99.90;;;;;;4993742;28;20175;-76
2022/01/07 08:11:03;;;;;;;1.30;1.02;;;6.60;99.90;;;;;;4993023;28;20214;-76
2022/01/07 08:13:30;;;;;;;2.05;0.90;;;6.60;99.90;;;;;;4992392;28;20225;-76
2022/01/07 08:16:03;;;;;;;1.52;0.90;;;6.60;99.90;;;;;;4992359;28;20175;-77
2022/01/07 08:18:31;;;;;;;1.52;1.00;;;6.70;99.90;;;;;;4991073;28;20265;-76
2022/01/07 08:21:00;;;;;;;1.48;0.80;;;6.70;99.90;;;;;;4991702;28;20571;-76
2022/01/07 08:23:27;;;;;;;3.40;1.15;;;6.70;99.90;;;;;;4991020;28;20262;-76
2022/01/07 08:25:53;;;;;;;1.30;1.00;;;6.80;99.90;;;;;;4991233;28;20179;-77
2022/01/07 08:28:22;;;;;;;3.15;1.27;;;6.80;99.90;;;;;;4975122;28;20252;-77
2022/01/07 08:36:22;;;;;;;1.77;0.80;;;6.90;99.90;;;;;;4992252;28;20229;-77
2022/01/07 08:38:49;;;;;;;1.20;0.70;;;6.90;99.90;;;;;;4992519;28;20163;-78
2022/01/07 08:41:16;;;;;;;1.50;0.70;;;6.90;99.90;;;;;;4974196;28;20291;-77
2022/01/07 08:43:41;;;;;;;2.40;1.10;;;6.90;99.90;;;;;;4974950;28;20175;-77
2022/01/07 08:46:10;;;;;;;1.60;0.80;;;7.00;99.90;;;;;;4996281;28;20171;-77
2022/01/07 08:48:37;;;;;;;2.00;0.88;;;7.00;99.90;;;;;;4990442;28;20180;-78
2022/01/07 08:51:07;;;;;;;1.38;0.90;;;7.00;99.90;;;;;;4991545;28;20190;-77
2022/01/07 08:53:33;;;;;;;1.95;0.80;;;7.00;99.90;;;;;;4994988;28;20159;-78
2022/01/07 08:55:59;;;;;;;1.42;0.80;;;7.10;99.90;;;;;;5011904;28;20646;-77
2022/01/07 08:58:25;;;;;;;1.42;0.90;;;7.10;99.90;;;;;;5033902;28;20189;-77
2022/01/07 09:00:51;;;;;;;1.33;0.70;;;7.10;99.90;;;;;;5017109;28;20198;-77
2022/01/07 09:03:17;;;;;;;1.90;0.80;;;7.20;99.90;;;;;;5016557;28;20176;-77
2022/01/07 09:05:43;;;;;;;2.00;0.70;;;7.20;99.90;;;;;;5033499;28;20708;-75
2022/01/07 09:08:11;;;;;;;1.38;0.80;;;7.20;99.90;;;;;;5033859;28;20623;-75
2022/01/07 09:10:37;;;;;;;1.05;0.60;;;7.30;99.90;;;;;;5032868;28;20693;-75
2022/01/07 09:13:04;;;;;;;1.20;0.70;;;7.30;99.90;;;;;;5028845;28;20185;-81
2022/01/07 09:15:29;;;;;;;1.67;0.75;;;7.30;99.90;;;;;;5019426;28;20165;-76
2022/01/07 09:17:55;;;;;;;1.23;0.60;;;7.30;99.90;;;;;;5015079;28;20560;-77
2022/01/07 09:20:21;;;;;;;1.60;0.70;;;7.40;99.90;;;;;;5015166;28;20249;-77
2022/01/07 09:22:49;;;;;;;1.10;0.60;;;7.40;99.90;;;;;;5020517;28;20186;-77
2022/01/07 09:25:16;;;;;;;1.35;0.60;;;7.50;99.90;;;;;;5025114;28;20565;-76
2022/01/07 09:27:42;;;;;;;1.65;0.70;;;7.50;99.90;;;;;;5018201;28;20299;-77
2022/01/07 09:30:10;;;;;;;1.20;0.60;;;7.50;99.90;;;;;;5020291;28;20225;-77
2022/01/07 09:32:37;;;;;;;1.40;0.60;;;7.60;99.90;;;;;;5021665;28;20623;-77
2022/01/07 09:35:03;;;;;;;1.10;0.50;;;7.60;99.90;;;;;;5025619;28;20268;-77
2022/01/07 09:37:30;;;;;;;1.63;0.70;;;7.50;99.90;;;;;;5025958;28;20564;-76
2022/01/07 09:39:56;;;;;;;1.57;0.70;;;7.60;99.90;;;;;;5013933;28;20190;-76
2022/01/07 09:42:21;;;;;;;1.93;0.70;;;7.50;99.90;;;;;;5025677;28;20253;-76
2022/01/07 09:44:48;;;;;;;2.90;0.70;;;7.60;99.90;;;;;;5026841;28;20178;-76
2022/01/07 09:47:14;;;;;;;1.85;0.70;;;7.60;99.90;;;;;;5025495;28;20830;-76
2022/01/07 09:49:41;;;;;;;1.20;0.60;;;7.50;99.90;;;;;;5026838;28;20254;-77
2022/01/07 09:52:08;;;;;;;1.33;0.80;;;7.50;99.90;;;;;;5022508;28;20183;-76
2022/01/07 09:54:36;;;;;;;1.60;0.70;;;7.50;99.90;;;;;;5007052;28;20171;-74
2022/01/07 09:57:04;;;;;;;1.77;0.90;;;7.60;99.90;;;;;;4993838;28;20242;-74
2022/01/07 09:59:34;;;;;;;1.77;0.80;;;7.60;99.90;;;;;;4995333;28;20274;-74
2022/01/07 10:02:02;;;;;;;1.90;1.17;;;7.60;99.90;;;;;;4997988;28;20186;-75
2022/01/07 10:04:31;;;;;;;2.35;0.77;;;7.60;99.90;;;;;;4996940;28;20207;-75
2022/01/07 10:07:29;;;;;;;1.90;0.98;;;7.60;99.90;;;;;;4996866;28;20709;-75
2022/01/07 10:10:08;;;;;;;2.30;0.80;;;7.70;99.90;;;;;;4995438;28;20200;-75
2022/01/07 10:13:00;;;;;;;1.50;0.70;;;7.70;99.90;;;;;;4997054;28;20634;-76
2022/01/07 10:15:29;;;;;;;1.48;0.80;;;7.60;99.90;;;;;;4994998;28;20526;-76
2022/01/07 10:18:00;;;;;;;2.20;0.80;;;7.70;99.90;;;;;;4996433;28;20213;-75
2022/01/07 10:20:38;;;;;;;2.10;0.90;;;7.70;99.90;;;;;;4994362;28;20207;-75
2022/01/07 10:23:05;;;;;;;1.60;0.90;;;7.70;99.90;;;;;;4994210;28;20179;-75
2022/01/07 10:25:37;;;;;;;1.33;0.70;;;7.70;99.90;;;;;;4992424;28;20257;-75
2022/01/07 10:28:04;;;;;;;3.13;0.70;;;7.80;99.90;;;;;;4993220;28;20214;-75
2022/01/07 10:30:34;;;;;;;2.22;0.70;;;7.90;99.90;;;;;;4994232;28;20187;-75
2022/01/07 10:33:00;;;;;;;1.20;0.60;;;7.90;99.90;;;;;;5026882;23;20216;-75
2022/01/07 10:35:28;;;;;;;1.17;0.60;;;8.00;99.90;;;;;;5042677;28;20187;-75
2022/01/07 10:37:59;;;;;;;1.65;0.60;;;8.10;99.90;;;;;;5025146;28;20265;-75
2022/01/07 10:40:26;;;;;;;1.23;0.68;;;8.10;99.90;;;;;;5015366;28;20180;-74
2022/01/07 10:42:54;;;;;;;1.40;0.60;;;8.20;99.90;;;;;;5028860;28;20194;-75
2022/01/07 10:45:21;;;;;;;3.15;0.60;;;8.20;99.90;;;;;;5014445;28;20535;-76
2022/01/07 10:47:52;;;;;;;1.33;0.73;;;8.30;99.90;;;;;;5012045;28;20199;-76
2022/01/07 10:50:27;;;;;;;1.40;0.60;;;8.30;99.90;;;;;;5013224;28;20190;-76
2022/01/07 10:53:13;;;;;;;3.35;0.60;;;8.30;99.90;;;;;;5012467;28;20186;-76
2022/01/07 10:55:39;;;;;;;1.58;0.80;;;8.40;99.90;;;;;;5013170;28;20523;-75
2022/01/07 10:58:05;;;;;;;1.80;0.70;;;8.40;99.90;;;;;;5012953;28;20225;-75
2022/01/07 11:00:36;;;;;;;2.07;0.70;;;8.50;99.90;;;;;;5012456;28;20222;-75
2022/01/07 11:03:07;;;;;;;2.28;0.80;;;8.50;99.90;;;;;;5015537;28;20229;-76
2022/01/07 11:05:33;;;;;;;1.20;0.70;;;8.60;99.90;;;;;;5039452;28;20176;-76
2022/01/07 11:08:01;;;;;;;1.30;0.70;;;8.60;99.90;;;;;;5051182;28;20694;-76
2022/01/07 11:10:29;;;;;;;1.67;0.68;;;8.70;99.90;;;;;;5051881;28;20578;-76
2022/01/07 11:12:57;;;;;;;2.50;0.80;;;8.70;99.90;;;;;;5050829;28;20235;-76
2022/01/07 11:15:23;;;;;;;1.20;0.60;;;8.70;99.90;;;;;;5050833;28;20165;-76
2022/01/07 11:17:49;;;;;;;1.10;0.60;;;8.80;99.90;;;;;;5050972;28;20189;-76
2022/01/07 11:20:23;;;;;;;1.63;0.80;;;8.90;99.90;;;;;;5051887;28;21007;-76
2022/01/07 11:22:53;;;;;;;2.30;1.00;;;9.00;99.90;;;;;;5050875;28;20200;-76
2022/01/07 11:25:19;;;;;;;1.50;0.70;;;9.10;99.90;;;;;;5051947;28;20180;-76
2022/01/07 11:27:54;;;;;;;2.67;0.60;;;9.20;99.90;;;;;;5050714;28;20652;-76
2022/01/07 11:30:23;;;;;;;3.38;0.70;;;9.30;99.90;;;;;;5050486;28;20287;-76
2022/01/07 11:32:51;;;;;;;1.98;0.65;;;9.30;99.90;;;;;;5034343;28;20209;-76
2022/01/07 11:35:16;;;;;;;1.67;0.68;;;9.40;99.90;;;;;;5050771;28;20176;-76
2022/01/07 11:37:54;;;;;;;1.27;0.60;;;9.40;99.90;;;;;;5051925;28;20165;-76
2022/01/07 11:40:29;;;;;;;1.20;0.70;;;9.40;99.90;;;;;;5053161;28;20173;-76
2022/01/07 11:42:56;;;;;;;1.50;0.70;;;9.50;99.90;;;;;;5054448;28;20338;-76
2022/01/07 11:45:30;;;;;;;1.33;0.82;;;9.60;99.90;;;;;;5050564;28;20177;-76
2022/01/07 11:48:10;;;;;;;1.10;0.60;;;9.60;99.90;;;;;;5050448;28;20568;-76
2022/01/07 11:50:54;;;;;;;1.30;0.70;;;9.70;99.90;;;;;;5051440;28;20180;-76
2022/01/07 11:53:21;;;;;;;1.10;0.60;;;9.80;99.90;;;;;;5051544;28;20192;-76
2022/01/07 11:55:49;;;;;;;1.20;0.80;;;9.80;99.90;;;;;;5050575;28;20165;-77
2022/01/07 11:58:15;;;;;;;1.60;0.60;;;9.80;99.90;;;;;;5050340;28;20177;-75
2022/01/07 12:00:52;;;;;;;1.38;0.80;;;9.80;99.90;;;;;;5051445;28;20188;-77
2022/01/07 12:04:00;;;;;;;1.48;1.00;;;9.80;99.90;;;;;;5047995;28;20197;-75
2022/01/07 12:06:30;;;;;;;1.58;0.70;;;9.80;99.90;;;;;;5030457;28;20653;-76
2022/01/07 12:08:58;;;;;;;2.30;0.80;;;9.80;99.90;;;;;;5031543;28;20661;-77
2022/01/07 12:11:36;;;;;;;1.67;1.42;;;9.70;99.90;;;;;;5031214;28;20672;-77
2022/01/07 12:14:11;;;;;;;2.22;0.75;;;9.70;99.90;;;;;;5030100;28;20243;-77
2022/01/07 12:16:37;;;;;;;1.60;0.70;;;9.70;99.90;;;;;;4997503;28;20211;-77
2022/01/07 12:19:19;;;;;;;2.35;1.98;;;9.70;99.90;;;;;;5034426;28;20669;-78
2022/01/07 12:21:50;;;;;;;1.60;0.93;;;9.70;99.90;;;;;;5031184;28;20209;-77
2022/01/07 12:24:21;;;;;;;1.27;0.70;;;9.80;99.90;;;;;;5030190;28;20514;-75
2022/01/07 12:27:04;;;;;;;3.60;0.88;;;9.80;99.90;;;;;;5031838;28;20555;-75
2022/01/07 12:29:33;;;;;;;1.88;1.00;;;9.80;99.90;;;;;;5035502;28;20233;-77
2022/01/07 12:31:59;;;;;;;1.90;0.90;;;9.80;99.90;;;;;;5034769;28;20216;-77
2022/01/07 12:34:26;;;;;;;2.17;1.00;;;9.80;99.90;;;;;;5033919;28;20178;-77
2022/01/07 12:37:00;;;;;;;1.80;0.82;;;9.80;99.90;;;;;;5033965;28;20219;-77
2022/01/07 12:39:32;;;;;;;2.83;0.80;;;9.70;99.90;;;;;;5034303;28;20169;-76
2022/01/07 12:41:58;;;;;;;1.90;0.70;;;9.70;99.90;;;;;;5034902;28;20180;-76
2022/01/07 12:44:24;;;;;;;2.27;0.80;;;9.70;99.90;;;;;;5034177;28;20288;-77
2022/01/07 12:46:56;;;;;;;2.10;1.20;;;9.70;99.90;;;;;;5033677;28;21168;-77
2022/01/07 12:49:37;;;;;;;1.80;1.30;;;9.70;99.90;;;;;;5033696;28;20177;-77
2022/01/07 12:52:06;;;;;;;1.40;0.90;;;9.70;99.90;;;;;;5033558;28;20177;-75
2022/01/07 12:54:32;;;;;;;2.17;1.10;;;9.80;99.90;;;;;;5036811;28;20162;-75
2022/01/07 12:56:58;;;;;;;2.20;0.90;;;9.80;99.90;;;;;;5035789;28;20208;-76
2022/01/07 12:59:25;;;;;;;2.23;1.13;;;9.80;99.90;;;;;;5035091;28;20197;-76
2022/01/07 13:01:51;;;;;;;2.28;0.90;;;9.80;99.90;;;;;;5033087;28;20572;-76
2022/01/07 13:04:22;;;;;;;3.65;0.80;;;9.90;99.90;;;;;;5046606;28;20204;-76
2022/01/07 13:06:51;;;;;;;2.00;1.00;;;9.90;99.90;;;;;;5054426;28;20292;-76